Time;durP1;ratioP1;P1;durP2;ratioP2;P2;SDS_P1;SDS_P2;PMS_P1;PMS_P2;Temp;Humidity;BMP_temperature;BMP_pressure;BME280_temperature;BME280_humidity;BME280_pressure;Samples;Min_cycle;Max_cycle;Signal;HPM_P1;HPM_P2
2024/04/14 00:01:19;;;;;;;23.20;8.80;;;;;;;17.46;53.87;99208.71;67877;1277;1018670;-69
2024/04/14 00:04:42;;;;;;;24.40;8.80;;;;;;;17.42;54.03;99206.11;67874;1277;1016445;-69
2024/04/14 00:07:44;;;;;;;25.10;9.00;;;;;;;17.35;53.92;99203.84;67841;1277;1017376;-69
2024/04/14 00:10:46;;;;;;;22.70;8.80;;;;;;;17.28;53.95;99200.91;67857;1277;1016400;-69
2024/04/14 00:13:49;;;;;;;23.40;8.70;;;;;;;17.20;54.46;99192.04;67845;1277;1016419;-69
2024/04/14 00:16:51;;;;;;;24.00;8.00;;;;;;;17.07;54.73;99194.63;67870;1277;1016476;-69
2024/04/14 00:19:53;;;;;;;22.90;8.20;;;;;;;17.03;54.47;99189.52;67872;1277;1016069;-69
2024/04/14 00:22:55;;;;;;;23.30;7.90;;;;;;;16.93;54.46;99187.98;67800;1277;1016100;-69
2024/04/14 00:25:58;;;;;;;22.00;7.60;;;;;;;16.90;54.45;99177.99;67885;1277;1016365;-70
2024/04/14 00:29:00;;;;;;;22.90;8.10;;;;;;;16.85;54.72;99180.01;67885;1277;1016448;-69
2024/04/14 00:32:02;;;;;;;23.30;8.20;;;;;;;16.87;54.66;99175.75;67855;1277;1016335;-69
2024/04/14 00:35:04;;;;;;;21.80;7.50;;;;;;;16.80;54.32;99172.80;67858;1277;1016419;-69
2024/04/14 00:38:07;;;;;;;20.70;7.40;;;;;;;16.74;54.66;99165.66;67844;1277;1016340;-70
2024/04/14 00:41:09;;;;;;;25.40;9.10;;;;;;;16.67;54.68;99160.10;67867;1277;1016461;-69
2024/04/14 00:44:11;;;;;;;25.50;9.50;;;;;;;16.63;55.01;99155.10;67909;1277;1016557;-69
2024/04/14 00:47:13;;;;;;;23.90;8.90;;;;;;;16.81;54.80;99149.53;67872;1277;1016824;-70
2024/04/14 00:50:16;;;;;;;23.70;9.70;;;;;;;16.64;55.24;99140.35;67834;1277;1016406;-69
2024/04/14 00:53:18;;;;;;;21.00;8.70;;;;;;;16.73;54.85;99136.43;67848;1277;1016388;-69
2024/04/14 00:56:20;;;;;;;24.00;8.60;;;;;;;16.72;54.94;99134.92;67869;1276;1016478;-69
2024/04/14 00:59:22;;;;;;;23.40;8.20;;;;;;;16.75;54.64;99135.23;67859;1276;1016435;-67
2024/04/14 01:02:24;;;;;;;24.20;8.70;;;;;;;16.70;54.45;99135.25;67866;1276;1015993;-67
2024/04/14 01:05:27;;;;;;;23.20;9.00;;;;;;;16.76;54.59;99137.63;67849;1277;1016266;-70
2024/04/14 01:08:29;;;;;;;24.70;9.60;;;;;;;16.73;54.68;99132.03;67844;1276;1016384;-69
2024/04/14 01:11:31;;;;;;;24.60;10.40;;;;;;;16.68;54.85;99126.44;67869;1277;1016228;-70
2024/04/14 01:14:33;;;;;;;23.90;9.50;;;;;;;16.67;55.56;99121.44;67884;1276;1016453;-69
2024/04/14 01:17:36;;;;;;;24.70;9.50;;;;;;;16.76;55.33;99116.80;67893;1276;1016445;-70
2024/04/14 01:20:39;;;;;;;24.70;10.50;;;;;;;16.77;55.33;99119.70;67922;1277;1016268;-70
2024/04/14 01:23:42;;;;;;;24.60;9.70;;;;;;;16.70;55.82;99112.66;67898;1276;1016488;-69
2024/04/14 01:26:44;;;;;;;34.30;14.40;;;;;;;16.74;55.66;99110.21;67862;1277;1016494;-68
2024/04/14 01:29:46;;;;;;;31.90;15.20;;;;;;;16.79;56.29;99106.45;67803;1276;1016446;-69
2024/04/14 01:32:48;;;;;;;34.60;15.80;;;;;;;16.96;56.61;99109.91;67876;1277;1016462;-69
2024/04/14 01:35:50;;;;;;;35.50;15.90;;;;;;;17.16;55.99;99109.44;67802;1277;1016432;-66
2024/04/14 01:38:53;;;;;;;35.20;15.40;;;;;;;17.13;56.07;99104.75;67806;1277;1016354;-68
2024/04/14 01:41:55;;;;;;;33.60;15.50;;;;;;;17.22;55.77;99097.00;67870;1277;1016826;-69
2024/04/14 01:44:57;;;;;;;30.30;14.70;;;;;;;17.37;55.86;99088.58;67890;1277;1016458;-70
2024/04/14 01:47:59;;;;;;;31.50;13.80;;;;;;;17.44;55.75;99084.16;67899;1277;1016386;-70
2024/04/14 01:51:03;;;;;;;30.00;12.00;;;;;;;17.44;55.86;99078.80;67908;1277;1016420;-69
2024/04/14 01:54:05;;;;;;;27.10;10.70;;;;;;;17.39;55.79;99072.69;67868;1277;1016415;-69
2024/04/14 01:57:07;;;;;;;32.70;14.70;;;;;;;17.33;55.55;99070.44;67851;1276;1017666;-68
2024/04/14 02:00:09;;;;;;;40.90;16.50;;;;;;;17.27;56.09;99063.13;67880;1276;1016777;-68
2024/04/14 02:03:12;;;;;;;62.10;23.10;;;;;;;17.32;55.68;99061.27;67877;1277;1016836;-69
2024/04/14 02:06:14;;;;;;;54.70;22.40;;;;;;;17.29;55.59;99056.39;67901;1277;1015773;-68
2024/04/14 02:09:16;;;;;;;45.80;16.60;;;;;;;17.30;55.51;99048.23;67919;1277;1016458;-69
2024/04/14 02:12:18;;;;;;;31.50;14.10;;;;;;;17.19;55.83;99048.06;67858;1277;1016480;-69
2024/04/14 02:15:21;;;;;;;32.20;13.40;;;;;;;17.25;55.97;99042.77;67804;1276;1016290;-69
2024/04/14 02:18:23;;;;;;;30.00;13.40;;;;;;;17.29;55.93;99043.56;67839;1277;1016385;-68
2024/04/14 02:21:25;;;;;;;37.70;15.60;;;;;;;17.38;55.71;99039.69;67818;1276;1016443;-69
2024/04/14 02:24:32;;;;;;;43.00;19.90;;;;;;;17.30;55.87;99035.44;67837;1277;1016426;-69
2024/04/14 02:27:34;;;;;;;41.30;18.20;;;;;;;17.32;55.99;99038.88;67909;1277;1016375;-68
2024/04/14 02:30:36;;;;;;;38.00;17.30;;;;;;;17.25;56.09;99034.85;67901;1277;1016686;-69
2024/04/14 02:33:40;;;;;;;33.20;15.40;;;;;;;17.21;56.19;99032.55;67875;1276;1016132;-69
2024/04/14 02:36:43;;;;;;;40.40;17.30;;;;;;;17.23;55.78;99030.90;67869;1277;1016557;-69
2024/04/14 02:39:45;;;;;;;33.30;15.10;;;;;;;17.01;56.39;99034.77;67859;1276;1016467;-69
2024/04/14 02:42:47;;;;;;;32.90;14.90;;;;;;;17.00;56.76;99030.41;67872;1277;1016396;-69
2024/04/14 02:45:49;;;;;;;32.00;14.10;;;;;;;17.09;56.43;99024.21;67869;1277;1016429;-70
2024/04/14 02:48:52;;;;;;;32.60;14.80;;;;;;;17.11;57.06;99019.73;67898;1277;1016428;-69
2024/04/14 02:51:54;;;;;;;30.00;14.80;;;;;;;17.27;57.02;99011.89;67898;1277;1018846;-69
2024/04/14 02:54:56;;;;;;;32.50;14.50;;;;;;;17.27;56.81;99008.69;67888;1276;1016556;-69
2024/04/14 02:58:01;;;;;;;32.80;13.90;;;;;;;17.30;56.95;99006.73;67849;1276;1016315;-69
2024/04/14 03:01:04;;;;;;;32.20;14.30;;;;;;;17.31;57.20;99008.52;67881;1276;1016495;-69
2024/04/14 03:04:06;;;;;;;33.20;15.30;;;;;;;17.31;56.83;99010.08;67905;1276;1016775;-69
2024/04/14 03:07:09;;;;;;;32.50;14.50;;;;;;;17.40;56.65;99004.59;67871;1277;1016423;-69
2024/04/14 03:10:11;;;;;;;33.00;16.20;;;;;;;17.28;56.95;98999.58;67839;1277;1016530;-69
2024/04/14 03:13:13;;;;;;;44.10;17.10;;;;;;;17.15;56.95;98998.79;67858;1276;1016429;-68
2024/04/14 03:16:15;;;;;;;33.00;15.00;;;;;;;17.16;57.19;98991.25;67835;1277;1016458;-69
2024/04/14 03:19:18;;;;;;;31.30;15.30;;;;;;;17.15;57.44;98983.89;67889;1276;1016349;-69
2024/04/14 03:22:20;;;;;;;34.00;15.20;;;;;;;17.18;58.62;98981.38;67886;1277;1016484;-69
2024/04/14 03:25:23;;;;;;;30.40;14.50;;;;;;;17.33;59.12;98969.98;67897;1277;1016553;-69
2024/04/14 03:28:25;;;;;;;33.40;15.30;;;;;;;17.55;59.11;98965.95;67876;1277;1018016;-69
2024/04/14 03:31:28;;;;;;;35.90;15.00;;;;;;;17.63;59.19;98960.33;67882;1277;1016134;-69
2024/04/14 03:34:30;;;;;;;28.90;13.30;;;;;;;17.78;58.76;98957.93;67870;1277;1016623;-69
2024/04/14 03:37:32;;;;;;;31.70;13.80;;;;;;;17.93;58.28;98951.00;67897;1277;1016423;-69
2024/04/14 03:40:34;;;;;;;33.20;14.30;;;;;;;17.98;58.23;98944.30;67901;1277;1016468;-69
2024/04/14 03:43:37;;;;;;;31.10;13.30;;;;;;;18.18;57.68;98938.52;67877;1277;1018185;-69
2024/04/14 03:46:39;;;;;;;30.70;13.40;;;;;;;18.22;57.58;98940.08;67880;1277;1016340;-69
2024/04/14 03:49:41;;;;;;;32.70;13.70;;;;;;;18.27;57.48;98926.55;67841;1277;1016117;-69
2024/04/14 03:52:43;;;;;;;29.00;12.60;;;;;;;18.31;57.49;98926.86;67819;1277;1016326;-67
2024/04/14 03:55:45;;;;;;;;;;;;;;;18.39;57.31;98925.48;65247;1277;6376370;-69
2024/04/14 03:58:49;;;;;;;29.10;12.10;;;;;;;18.47;57.12;98926.79;67870;1277;1016498;-68
2024/04/14 04:01:51;;;;;;;27.90;12.70;;;;;;;18.46;57.09;98925.11;67878;1277;1019698;-69
2024/04/14 04:04:53;;;;;;;30.10;13.00;;;;;;;18.50;57.09;98921.05;67864;1277;1018145;-69
2024/04/14 04:07:55;;;;;;;29.60;12.90;;;;;;;18.57;57.07;98920.63;67863;1277;1016695;-68
2024/04/14 04:10:58;;;;;;;28.30;13.00;;;;;;;18.65;56.95;98917.06;67882;1277;1016165;-68
2024/04/14 04:14:00;;;;;;;29.80;12.80;;;;;;;18.77;56.65;98916.66;67878;1277;1016494;-68
2024/04/14 04:17:02;;;;;;;27.90;12.60;;;;;;;18.83;56.50;98910.57;67890;1277;1016378;-67
2024/04/14 04:20:05;;;;;;;28.20;12.60;;;;;;;18.89;56.38;98914.05;67900;1277;1016348;-69
2024/04/14 04:23:07;;;;;;;;;;;;;;;18.94;56.35;98906.42;67877;1277;1016942;-68
2024/04/14 04:26:09;;;;;;;30.50;12.60;;;;;;;18.95;56.25;98897.40;67838;1277;1016439;-68
2024/04/14 04:29:11;;;;;;;25.90;11.40;;;;;;;19.14;55.75;98892.40;67860;1276;1019224;-68
2024/04/14 04:32:16;;;;;;;25.50;10.80;;;;;;;19.20;55.63;98889.21;67841;1277;1016629;-68
2024/04/14 04:35:18;;;;;;;28.50;11.20;;;;;;;19.18;55.86;98886.90;67880;1277;1016793;-69
2024/04/14 04:38:21;;;;;;;26.00;11.00;;;;;;;19.15;56.07;98881.70;67876;1276;1016499;-69
2024/04/14 04:41:23;;;;;;;29.60;11.20;;;;;;;19.23;55.94;98875.84;67895;1277;1016393;-68
2024/04/14 04:44:26;;;;;;;27.50;11.20;;;;;;;19.31;55.78;98871.33;67869;1277;1016433;-69
2024/04/14 04:47:28;;;;;;;28.50;11.00;;;;;;;19.38;55.82;98867.81;67861;1277;1016339;-69
2024/04/14 04:50:30;;;;;;;25.50;10.00;;;;;;;19.50;55.65;98868.27;67895;1277;1016962;-68
2024/04/14 04:53:32;;;;;;;28.60;11.30;;;;;;;19.63;55.40;98859.70;67887;1276;1015990;-68
2024/04/14 04:56:35;;;;;;;26.20;10.70;;;;;;;19.74;55.05;98848.71;67911;1277;1016486;-68
2024/04/14 04:59:37;;;;;;;23.80;9.30;;;;;;;19.73;55.14;98851.60;67855;1276;1016501;-69
2024/04/14 05:02:39;;;;;;;26.40;9.90;;;;;;;19.74;55.24;98858.82;67859;1277;1016428;-67
2024/04/14 05:05:41;;;;;;;27.20;9.90;;;;;;;19.93;54.83;98858.42;67833;1277;1016542;-65
2024/04/14 05:08:44;;;;;;;25.40;9.30;;;;;;;20.03;54.77;98852.61;67858;1277;1016326;-64
2024/04/14 05:11:46;;;;;;;23.50;9.40;;;;;;;20.07;54.70;98839.23;67833;1277;1016359;-68
2024/04/14 05:14:48;;;;;;;24.70;9.70;;;;;;;20.27;54.33;98838.86;67849;1277;1016238;-69
2024/04/14 05:17:50;;;;;;;21.80;8.90;;;;;;;20.42;54.08;98832.20;67899;1277;1016304;-63
2024/04/14 05:20:52;;;;;;;23.80;9.50;;;;;;;20.49;54.09;98835.97;67868;1276;1016511;-69
2024/04/14 05:23:55;;;;;;;23.80;9.90;;;;;;;20.65;53.71;98834.65;67900;1277;1016484;-68
2024/04/14 05:26:57;;;;;;;25.50;9.80;;;;;;;20.80;53.50;98831.35;67875;1277;1018558;-64
2024/04/14 05:29:59;;;;;;;25.60;9.80;;;;;;;20.93;53.18;98830.21;67877;1277;1016170;-68
2024/04/14 05:33:01;;;;;;;27.90;10.60;;;;;;;21.06;53.03;98827.57;67872;1277;1015682;-69
2024/04/14 05:36:04;;;;;;;24.00;9.10;;;;;;;21.13;52.78;98829.76;67828;1277;1016114;-67
2024/04/14 05:39:06;;;;;;;21.60;8.30;;;;;;;21.26;52.72;98830.86;67852;1277;1017710;-63
2024/04/14 05:42:08;;;;;;;24.30;8.70;;;;;;;21.44;52.60;98824.81;67849;1276;1016026;-68
2024/04/14 05:45:10;;;;;;;21.80;8.20;;;;;;;21.59;51.78;98819.77;67899;1277;1016511;-67
2024/04/14 05:48:13;;;;;;;22.10;7.90;;;;;;;21.67;51.79;98828.29;67893;1277;1018208;-69
2024/04/14 05:51:16;;;;;;;24.70;8.10;;;;;;;21.80;51.79;98831.57;67852;1277;1016687;-68
2024/04/14 05:54:18;;;;;;;;;;;;;;;21.95;51.29;98828.91;67868;1277;1016449;-68
2024/04/14 05:57:25;;;;;;;21.00;6.90;;;;;;;21.94;50.73;98833.98;67861;1276;1016359;-67
2024/04/14 06:00:27;;;;;;;20.20;6.90;;;;;;;21.94;51.05;98827.94;67904;1276;1016358;-64
2024/04/14 06:03:29;;;;;;;20.70;7.20;;;;;;;22.01;51.01;98822.84;67882;1276;1016793;-69
2024/04/14 06:06:31;;;;;;;21.20;6.80;;;;;;;22.18;50.60;98821.92;67872;1277;1016454;-67
2024/04/14 06:09:34;;;;;;;17.50;6.20;;;;;;;22.46;50.43;98818.02;67846;1277;1016448;-69
2024/04/14 06:12:36;;;;;;;19.60;6.70;;;;;;;22.66;49.73;98815.78;67884;1277;1015882;-68
2024/04/14 06:15:39;;;;;;;;;;;;;;;22.84;49.66;98817.73;67894;1277;1016470;-67
2024/04/14 06:18:41;;;;;;;18.50;6.00;;;;;;;23.08;48.77;98816.64;67895;1277;1016393;-68
2024/04/14 06:21:43;;;;;;;20.00;6.30;;;;;;;23.17;48.90;98814.20;67903;1277;1017639;-66
2024/04/14 06:24:45;;;;;;;16.50;5.50;;;;;;;23.30;49.18;98816.85;67900;1277;1018890;-68
2024/04/14 06:27:47;;;;;;;17.50;5.90;;;;;;;23.41;48.79;98821.77;67893;1277;1016515;-68
2024/04/14 06:30:50;;;;;;;22.00;7.20;;;;;;;23.49;48.08;98816.46;67854;1277;1016456;-68
2024/04/14 06:33:52;;;;;;;19.10;6.10;;;;;;;23.61;48.81;98820.61;67844;1277;1016475;-63
2024/04/14 06:36:54;;;;;;;;;;;;;;;23.79;47.72;98818.82;67858;1277;1016148;-68
2024/04/14 06:39:57;;;;;;;17.90;5.60;;;;;;;23.81;47.05;98812.20;67851;1277;1017056;-67
2024/04/14 06:42:59;;;;;;;18.90;5.60;;;;;;;23.83;46.63;98816.30;67864;1277;1017964;-68
2024/04/14 06:46:02;;;;;;;17.10;5.40;;;;;;;23.95;47.26;98807.97;67910;1277;1016446;-68
2024/04/14 06:49:04;;;;;;;20.00;5.60;;;;;;;24.27;47.26;98806.59;67842;1277;1016379;-68
2024/04/14 06:52:07;;;;;;;16.40;5.20;;;;;;;24.44;46.21;98800.91;67896;1277;1016362;-68
2024/04/14 06:55:11;;;;;;;16.70;5.00;;;;;;;24.47;45.81;98798.65;67904;1277;1016453;-69
2024/04/14 06:58:13;;;;;;;16.30;4.90;;;;;;;24.48;46.32;98798.52;67895;1277;1018504;-67
2024/04/14 07:01:16;;;;;;;;;;;;;;;24.57;45.65;98795.73;67864;1277;1016860;-68
2024/04/14 07:04:18;;;;;;;19.20;5.20;;;;;;;24.61;45.27;98790.57;67886;1277;1016415;-66
2024/04/14 07:07:20;;;;;;;17.40;4.90;;;;;;;24.76;44.95;98793.21;67826;1277;1016038;-68
2024/04/14 07:10:23;;;;;;;;;;;;;;;24.73;45.12;98782.09;67877;1277;1016638;-67
2024/04/14 07:13:25;;;;;;;19.10;5.50;;;;;;;24.80;45.26;98781.60;67826;1277;1016126;-66
2024/04/14 07:16:27;;;;;;;18.40;6.00;;;;;;;24.81;44.84;98779.20;67853;1277;1016956;-68
2024/04/14 07:19:30;;;;;;;18.80;6.00;;;;;;;24.87;44.84;98777.52;67921;1277;1016295;-68
2024/04/14 07:22:32;;;;;;;18.60;5.30;;;;;;;25.14;45.10;98785.73;67870;1277;1016114;-68
2024/04/14 07:25:34;;;;;;;18.60;4.70;;;;;;;25.38;44.41;98786.35;67899;1277;1016426;-69
2024/04/14 07:28:37;;;;;;;;;;;;;;;25.45;43.96;98779.48;67886;1277;1016408;-68
2024/04/14 07:31:39;;;;;;;19.40;5.00;;;;;;;25.46;43.27;98780.61;67849;1277;1016211;-68
2024/04/14 07:34:41;;;;;;;13.40;4.60;;;;;;;25.52;43.40;98769.60;67865;1277;1016474;-68
2024/04/14 07:37:43;;;;;;;18.60;5.00;;;;;;;25.76;43.93;98767.80;67894;1277;1016069;-68
2024/04/14 07:40:46;;;;;;;13.50;4.30;;;;;;;25.79;42.97;98762.45;67866;1277;1016501;-67
2024/04/14 07:43:48;;;;;;;;;;;;;;;25.80;42.90;98769.16;67908;1277;1016140;-68
2024/04/14 07:46:50;;;;;;;15.00;4.80;;;;;;;25.81;42.33;98770.73;67906;1277;1016611;-68
2024/04/14 07:49:52;;;;;;;;;;;;;;;25.91;42.72;98762.64;67901;1277;1020119;-68
2024/04/14 07:52:54;;;;;;;14.70;4.60;;;;;;;26.18;41.86;98761.63;67896;1277;1018407;-68
2024/04/14 07:55:57;;;;;;;13.90;3.90;;;;;;;26.23;41.93;98760.33;67867;1277;1016028;-67
2024/04/14 07:59:01;;;;;;;12.90;3.80;;;;;;;26.18;41.35;98760.80;67872;1277;1016455;-68
2024/04/14 08:02:04;;;;;;;13.10;3.80;;;;;;;26.05;40.53;98764.42;67834;1277;1016280;-68
2024/04/14 08:05:06;;;;;;;12.10;3.70;;;;;;;26.06;40.51;98761.70;67896;1254;1016109;-68
2024/04/14 08:08:09;;;;;;;16.60;4.00;;;;;;;26.16;40.80;98755.86;67903;1277;1016427;-68
2024/04/14 08:11:11;;;;;;;14.00;3.90;;;;;;;26.37;40.62;98754.67;67852;1277;1017787;-68
2024/04/14 08:14:14;;;;;;;18.60;3.90;;;;;;;26.19;40.27;98756.14;67899;1277;1017165;-68
2024/04/14 08:17:16;;;;;;;;;;;;;;;26.37;40.97;98737.39;67884;1277;1017384;-68
2024/04/14 08:20:18;;;;;;;;;;;;;;;26.56;40.23;98737.95;67888;1277;1016487;-68
2024/04/14 08:23:21;;;;;;;18.70;4.10;;;;;;;26.56;40.22;98733.42;67850;1277;1016449;-67
2024/04/14 08:26:23;;;;;;;14.80;3.90;;;;;;;26.54;39.44;98746.04;67891;1277;1016248;-68
2024/04/14 08:29:25;;;;;;;17.80;3.80;;;;;;;26.70;40.04;98736.79;67861;1277;1016477;-67
2024/04/14 08:32:28;;;;;;;12.50;3.60;;;;;;;26.92;39.91;98740.99;67865;1277;1016024;-67
2024/04/14 08:35:30;;;;;;;;;;;;;;;27.06;39.35;98740.38;67881;1277;1016926;-68
2024/04/14 08:38:32;;;;;;;14.30;3.80;;;;;;;26.89;38.97;98757.11;67866;1277;1016246;-68
2024/04/14 08:41:34;;;;;;;13.50;3.70;;;;;;;26.78;38.98;98753.35;67891;1254;1017175;-68
2024/04/14 08:44:37;;;;;;;12.00;4.10;;;;;;;26.79;39.07;98752.83;67907;1277;1016616;-68
2024/04/14 08:47:39;;;;;;;11.80;3.50;;;;;;;26.87;39.74;98750.61;67875;1277;1016174;-68
2024/04/14 08:50:41;;;;;;;16.90;3.70;;;;;;;27.07;39.98;98753.12;67859;1277;1016033;-67
2024/04/14 08:53:44;;;;;;;;;;;;;;;27.24;39.27;98755.78;67863;1277;1018884;-68
2024/04/14 08:56:46;;;;;;;16.10;4.00;;;;;;;27.46;39.25;98749.93;67882;1277;1016402;-67
2024/04/14 08:59:48;;;;;;;15.80;3.80;;;;;;;27.43;38.93;98757.11;67886;1277;1016865;-67
2024/04/14 09:02:50;;;;;;;18.20;4.10;;;;;;;27.59;38.68;98766.81;67876;1277;1016439;-68
2024/04/14 09:05:53;;;;;;;16.20;4.10;;;;;;;27.62;38.50;98758.90;67892;1277;1016462;-68
2024/04/14 09:08:55;;;;;;;11.00;3.80;;;;;;;27.58;38.12;98759.60;67887;1277;1015726;-66
2024/04/14 09:11:58;;;;;;;14.70;4.10;;;;;;;27.38;38.26;98772.55;67873;1277;1016858;-67
2024/04/14 09:15:00;;;;;;;13.10;3.80;;;;;;;27.37;38.77;98754.96;67860;1277;1017092;-68
2024/04/14 09:18:03;;;;;;;17.70;3.90;;;;;;;27.45;38.67;98758.43;67898;1277;1016158;-67
2024/04/14 09:21:05;;;;;;;11.60;3.60;;;;;;;27.32;38.73;98755.64;67919;1277;1016408;-68
2024/04/14 09:24:07;;;;;;;12.60;3.80;;;;;;;27.38;39.08;98762.96;67884;1277;1016224;-68
2024/04/14 09:27:09;;;;;;;14.80;4.60;;;;;;;27.36;38.83;98769.12;67933;1277;1016331;-67
2024/04/14 09:30:12;;;;;;;12.90;3.50;;;;;;;27.22;38.79;98774.17;67856;1277;1016488;-68
2024/04/14 09:33:14;;;;;;;14.00;3.90;;;;;;;27.02;38.72;98784.32;67885;1277;1016463;-67
2024/04/14 09:36:16;;;;;;;16.60;3.80;;;;;;;27.03;39.22;98769.83;67841;1277;1016470;-66
2024/04/14 09:39:18;;;;;;;14.30;4.20;;;;;;;27.36;39.15;98763.35;67853;1277;1016830;-67
2024/04/14 09:42:21;;;;;;;17.10;3.90;;;;;;;27.60;39.35;98769.17;67856;1277;1016422;-68
2024/04/14 09:45:23;;;;;;;12.80;3.70;;;;;;;27.93;39.18;98768.79;67902;1277;1016195;-67
2024/04/14 09:48:25;;;;;;;16.50;3.80;;;;;;;28.35;38.96;98758.19;67909;1277;1018183;-67
2024/04/14 09:51:27;;;;;;;13.50;3.80;;;;;;;28.30;38.49;98756.36;67911;1277;1016366;-67
2024/04/14 09:54:30;;;;;;;16.80;3.80;;;;;;;28.14;38.68;98751.14;67897;1277;1016682;-67
2024/04/14 09:57:32;;;;;;;13.70;3.90;;;;;;;28.03;38.92;98745.25;67878;1277;1016471;-68
2024/04/14 10:00:34;;;;;;;14.20;3.50;;;;;;;28.13;39.27;98745.73;67871;1277;1018688;-68
2024/04/14 10:03:36;;;;;;;14.00;3.70;;;;;;;28.24;38.83;98749.63;67848;1277;1016685;-65
2024/04/14 10:06:39;;;;;;;13.50;3.80;;;;;;;28.03;38.32;98751.09;67863;1277;1016377;-68
2024/04/14 10:09:43;;;;;;;14.00;3.80;;;;;;;27.87;38.66;98749.98;67918;1277;1016152;-68
2024/04/14 10:12:45;;;;;;;16.00;3.90;;;;;;;27.59;38.71;98750.24;67900;1277;1016675;-66
2024/04/14 10:15:47;;;;;;;15.20;3.80;;;;;;;27.58;39.63;98742.48;67893;1277;1016182;-64
2024/04/14 10:18:50;;;;;;;15.70;3.80;;;;;;;27.54;39.10;98751.80;67895;1277;1015888;-67
2024/04/14 10:21:52;;;;;;;14.00;3.60;;;;;;;27.82;39.95;98733.20;67882;1277;1016436;-68
2024/04/14 10:24:55;;;;;;;14.80;3.60;;;;;;;27.87;38.71;98737.56;67854;1277;1018100;-67
2024/04/14 10:27:57;;;;;;;15.10;3.50;;;;;;;28.05;39.35;98725.80;67897;1277;1016066;-66
2024/04/14 10:30:59;;;;;;;14.70;4.20;;;;;;;28.34;38.42;98728.13;67899;1277;1016387;-66
2024/04/14 10:34:02;;;;;;;16.40;4.30;;;;;;;28.30;37.91;98732.81;67867;1277;1016423;-65
2024/04/14 10:37:04;;;;;;;12.00;3.70;;;;;;;28.00;38.28;98733.63;67872;1277;1016154;-67
2024/04/14 10:40:06;;;;;;;12.50;3.70;;;;;;;27.89;38.55;98730.64;67876;1277;1016716;-67
2024/04/14 10:43:08;;;;;;;11.20;3.50;;;;;;;27.95;38.37;98729.36;67843;1277;1018072;-66
2024/04/14 10:46:11;;;;;;;15.10;3.50;;;;;;;27.90;38.31;98736.20;67869;1278;1016940;-68
2024/04/14 10:49:13;;;;;;;14.00;3.30;;;;;;;27.64;38.03;98734.70;67889;1277;1016431;-67
2024/04/14 10:52:15;;;;;;;12.50;2.90;;;;;;;27.65;37.51;98719.70;67909;1277;1019087;-66
2024/04/14 10:55:17;;;;;;;13.50;3.20;;;;;;;27.58;37.44;98718.33;67892;1277;1018383;-66
2024/04/14 10:58:20;;;;;;;13.30;3.20;;;;;;;27.69;37.31;98716.22;67930;1277;1016355;-66
2024/04/14 11:01:22;;;;;;;11.40;3.60;;;;;;;27.90;37.04;98710.00;67904;1277;1016482;-68
2024/04/14 11:04:24;;;;;;;12.00;3.00;;;;;;;28.01;36.98;98725.68;67850;1277;1016248;-68
2024/04/14 11:07:26;;;;;;;12.80;2.60;;;;;;;28.03;34.92;98715.55;67863;1276;1016279;-66
2024/04/14 11:10:29;;;;;;;8.30;2.70;;;;;;;28.13;34.81;98722.98;67845;1277;1016361;-67
2024/04/14 11:13:31;;;;;;;13.30;3.70;;;;;;;28.38;35.59;98705.48;67891;1277;1016488;-68
2024/04/14 11:16:33;;;;;;;11.80;2.90;;;;;;;28.73;35.31;98717.19;67891;1277;1016075;-67
2024/04/14 11:19:36;;;;;;;10.80;2.90;;;;;;;28.88;34.29;98732.22;67895;1278;1015852;-67
2024/04/14 11:22:38;;;;;;;10.30;3.20;;;;;;;28.67;33.41;98724.20;67849;1277;1016304;-66
2024/04/14 11:25:40;;;;;;;14.10;2.70;;;;;;;28.27;32.67;98721.00;67864;1277;1016636;-68
2024/04/14 11:28:43;;;;;;;11.40;3.00;;;;;;;28.13;33.43;98733.71;67863;1277;1016510;-67
2024/04/14 11:31:45;;;;;;;8.80;2.60;;;;;;;27.79;33.54;98727.73;67861;1277;1016432;-68
2024/04/14 11:34:47;;;;;;;11.20;3.00;;;;;;;27.60;33.58;98728.78;67878;1277;1016419;-68
2024/04/14 11:37:52;;;;;;;14.70;2.90;;;;;;;27.79;33.60;98721.45;67904;1277;1016481;-66
2024/04/14 11:40:55;;;;;;;11.00;2.80;;;;;;;28.04;32.71;98728.42;67857;1277;1015834;-67
2024/04/14 11:43:57;;;;;;;8.60;2.30;;;;;;;28.16;32.02;98710.10;67865;1277;1017296;-67
2024/04/14 11:47:00;;;;;;;9.50;2.20;;;;;;;28.24;31.49;98717.09;67846;1277;1016745;-67
2024/04/14 11:50:02;;;;;;;10.50;2.40;;;;;;;27.98;30.55;98720.78;67902;1277;1016542;-68
2024/04/14 11:53:04;;;;;;;11.80;2.70;;;;;;;27.83;31.79;98725.55;67834;1278;1016353;-65
2024/04/14 11:56:06;;;;;;;10.50;2.30;;;;;;;27.71;32.09;98702.84;67851;1277;1016489;-67
2024/04/14 11:59:09;;;;;;;10.10;2.10;;;;;;;27.64;31.08;98708.34;67864;1277;1016010;-65
2024/04/14 12:02:11;;;;;;;7.80;2.20;;;;;;;27.68;30.78;98712.78;67831;1277;1016205;-66
2024/04/14 12:05:18;;;;;;;14.60;2.70;;;;;;;27.97;31.18;98704.36;67834;1277;1016380;-68
2024/04/14 12:08:20;;;;;;;10.90;2.40;;;;;;;28.21;30.32;98709.93;67905;1277;1016207;-68
2024/04/14 12:11:23;;;;;;;11.70;2.40;;;;;;;28.20;30.23;98702.67;67832;1277;1016350;-67
2024/04/14 12:14:25;;;;;;;9.80;2.40;;;;;;;28.36;30.05;98701.97;67831;1277;1016163;-66
2024/04/14 12:17:27;;;;;;;10.80;2.20;;;;;;;28.42;30.21;98697.73;67908;1277;1016410;-68
2024/04/14 12:20:30;;;;;;;15.40;2.40;;;;;;;28.27;30.99;98695.27;67893;1277;1016433;-67
2024/04/14 12:23:32;;;;;;;12.50;2.20;;;;;;;28.27;31.14;98696.98;67890;1278;1016723;-67
2024/04/14 12:26:34;;;;;;;7.40;2.50;;;;;;;28.04;31.12;98698.60;67905;1277;1016516;-68
2024/04/14 12:29:36;;;;;;;9.50;2.60;;;;;;;27.97;32.04;98705.72;67900;1277;1016410;-67
2024/04/14 12:32:38;;;;;;;8.00;2.30;;;;;;;27.94;31.76;98702.15;67860;1277;1016377;-68
2024/04/14 12:35:41;;;;;;;11.90;2.70;;;;;;;27.89;32.16;98690.94;67866;1277;1015989;-67
2024/04/14 12:38:46;;;;;;;11.40;2.70;;;;;;;27.85;32.31;98683.42;67879;1277;1016824;-67
2024/04/14 12:41:48;;;;;;;8.80;2.40;;;;;;;27.94;32.76;98693.20;67869;1277;1016324;-65
2024/04/14 12:44:50;;;;;;;12.50;3.00;;;;;;;27.87;32.48;98695.36;67894;1277;1016211;-67
2024/04/14 12:47:52;;;;;;;14.80;2.70;;;;;;;27.74;32.97;98689.69;67889;1277;1016420;-66
2024/04/14 12:50:54;;;;;;;11.40;2.60;;;;;;;27.58;32.78;98687.75;67900;1277;1016528;-67
2024/04/14 12:53:57;;;;;;;12.60;3.00;;;;;;;27.52;33.32;98678.88;67877;1277;1016365;-67
2024/04/14 12:56:59;;;;;;;8.00;2.50;;;;;;;27.54;33.36;98680.41;67849;1277;1016518;-67
2024/04/14 13:00:01;;;;;;;12.70;2.60;;;;;;;27.54;33.48;98670.31;67853;1277;1017742;-68
2024/04/14 13:03:04;;;;;;;11.90;2.70;;;;;;;27.82;33.52;98666.64;67897;1277;1016494;-68
2024/04/14 13:06:06;;;;;;;12.00;2.50;;;;;;;28.11;33.31;98663.84;67905;1277;1016392;-68
2024/04/14 13:09:09;;;;;;;10.60;3.00;;;;;;;28.35;33.17;98683.14;67900;1278;1017176;-67
2024/04/14 13:12:11;;;;;;;14.50;3.10;;;;;;;28.41;33.08;98682.25;67865;1277;1017328;-68
2024/04/14 13:15:13;;;;;;;12.60;3.00;;;;;;;28.25;32.60;98692.30;67869;1276;1016249;-66
2024/04/14 13:18:15;;;;;;;11.90;2.50;;;;;;;27.90;33.47;98702.91;67848;1277;1016412;-68
2024/04/14 13:21:17;;;;;;;11.20;2.80;;;;;;;27.74;33.89;98690.27;67842;1277;1018586;-66
2024/04/14 13:24:20;;;;;;;11.70;2.70;;;;;;;27.85;33.94;98688.27;67837;1277;1016471;-67
2024/04/14 13:27:22;;;;;;;10.50;2.60;;;;;;;28.03;33.83;98684.67;67891;1277;1016416;-67
2024/04/14 13:30:24;;;;;;;12.50;3.20;;;;;;;27.84;33.73;98673.80;67857;1277;1016491;-68
2024/04/14 13:33:27;;;;;;;12.80;2.70;;;;;;;27.98;33.77;98661.86;67897;1277;1016314;-68
2024/04/14 13:36:29;;;;;;;13.20;2.70;;;;;;;28.66;33.35;98660.98;67894;1277;1016518;-67
2024/04/14 13:39:31;;;;;;;13.30;3.20;;;;;;;28.81;32.80;98660.77;67873;1277;1016434;-68
2024/04/14 13:42:33;;;;;;;10.60;3.00;;;;;;;28.59;32.75;98654.47;67881;1277;1016330;-67
2024/04/14 13:45:35;;;;;;;11.20;2.80;;;;;;;28.62;33.10;98643.63;67853;1277;1016444;-68
2024/04/14 13:48:38;;;;;;;10.80;2.80;;;;;;;28.83;33.03;98637.05;67817;1277;1016544;-65
2024/04/14 13:51:40;;;;;;;14.50;3.00;;;;;;;28.93;33.49;98645.12;67864;1277;1016431;-68